Time;durP1;ratioP1;P1;durP2;ratioP2;P2;SDS_P1;SDS_P2;PMS_P1;PMS_P2;Temp;Humidity;BMP_temperature;BMP_pressure;BME280_temperature;BME280_humidity;BME280_pressure;Samples;Min_cycle;Max_cycle;Signal;HPM_P1;HPM_P2
2023/03/24 00:01:08;;;;;;;13.80;8.20;;;;;;;13.28;49.72;99315.23;79233;1298;3013386;-67
2023/03/24 00:03:35;;;;;;;18.10;7.90;;;;;;;13.29;49.70;99310.65;79113;1301;3011446;-65
2023/03/24 00:06:04;;;;;;;10.60;6.50;;;;;;;13.25;49.52;99310.33;78214;1301;3069533;-68
2023/03/24 00:08:35;;;;;;;17.00;7.70;;;;;;;13.30;49.52;99309.30;79375;1301;3012938;-64
2023/03/24 00:11:06;;;;;;;13.50;7.10;;;;;;;13.29;49.31;99308.70;78152;1302;3056458;-64
2023/03/24 00:13:36;;;;;;;14.80;6.90;;;;;;;13.24;49.78;99312.89;79241;1303;3011820;-66
2023/03/24 00:16:08;;;;;;;16.00;7.20;;;;;;;13.23;49.39;99317.15;78081;1297;3054872;-64
2023/03/24 00:18:36;;;;;;;19.90;6.90;;;;;;;13.21;49.82;99314.01;79159;1302;3011702;-66
2023/03/24 00:21:10;;;;;;;16.30;8.80;;;;;;;13.15;50.38;99318.33;77999;1303;3053431;-64
2023/03/24 00:23:37;;;;;;;20.50;8.50;;;;;;;13.09;50.37;99316.11;79131;1302;3013729;-65
2023/03/24 00:26:05;;;;;;;21.40;9.40;;;;;;;13.02;50.99;99314.67;79191;1301;3011803;-65
2023/03/24 00:28:36;;;;;;;23.50;10.00;;;;;;;12.85;51.32;99311.38;77920;1301;3056271;-63
2023/03/24 00:31:04;;;;;;;17.10;9.10;;;;;;;12.76;51.49;99310.79;79345;1297;3013200;-62
2023/03/24 00:33:31;;;;;;;20.30;10.70;;;;;;;12.69;51.70;99308.48;79216;1297;3011734;-66
2023/03/24 00:36:04;;;;;;;23.40;10.30;;;;;;;12.61;52.03;99309.56;78086;1303;3054240;-64
2023/03/24 00:38:33;;;;;;;21.50;9.60;;;;;;;12.50;52.26;99309.80;79240;1303;3012907;-66
2023/03/24 00:41:01;;;;;;;15.50;7.90;;;;;;;12.53;52.46;99304.33;78185;1299;3026941;-65
2023/03/24 00:43:28;;;;;;;21.50;10.00;;;;;;;12.56;52.28;99307.61;79183;1301;3013630;-62
2023/03/24 00:46:00;;;;;;;22.10;10.80;;;;;;;12.47;52.50;99310.02;79123;1297;3012130;-62
2023/03/24 00:48:33;;;;;;;20.80;9.30;;;;;;;12.39;53.21;99311.61;77960;1297;3054845;-63
2023/03/24 00:51:01;;;;;;;18.30;9.10;;;;;;;12.31;53.39;99314.11;79311;1303;3013552;-65
2023/03/24 00:53:28;;;;;;;19.30;9.10;;;;;;;12.30;53.48;99316.16;79213;1302;3013408;-63
2023/03/24 00:55:57;;;;;;;17.10;8.70;;;;;;;12.23;53.93;99312.23;78044;1300;3067861;-63
2023/03/24 00:58:24;;;;;;;13.50;8.40;;;;;;;12.21;54.31;99319.70;79254;1297;3013929;-63
2023/03/24 01:00:56;;;;;;;18.00;8.30;;;;;;;12.21;54.22;99317.64;77990;1300;3049308;-64
2023/03/24 01:03:26;;;;;;;20.10;9.40;;;;;;;12.24;54.20;99316.20;79152;1298;3011762;-65
2023/03/24 01:05:56;;;;;;;15.30;9.20;;;;;;;12.28;53.98;99315.58;77903;1300;3051283;-63
2023/03/24 01:08:24;;;;;;;17.90;8.70;;;;;;;12.23;54.38;99314.83;79203;1303;3013494;-62
2023/03/24 01:10:53;;;;;;;19.30;8.20;;;;;;;12.18;54.47;99314.17;77993;1300;3027019;-64
2023/03/24 01:13:21;;;;;;;18.20;8.50;;;;;;;12.25;54.36;99320.86;79262;1302;3015060;-66
2023/03/24 01:15:48;;;;;;;19.60;8.40;;;;;;;12.29;54.16;99319.88;79391;1296;3011696;-66
2023/03/24 01:18:17;;;;;;;15.10;8.50;;;;;;;12.25;54.29;99323.34;78130;1298;3049362;-64
2023/03/24 01:20:45;;;;;;;19.70;9.60;;;;;;;12.24;54.83;99323.36;79260;1300;3015812;-66
2023/03/24 01:23:13;;;;;;;20.00;9.00;;;;;;;12.24;54.67;99323.92;79340;1300;3013329;-65
2023/03/24 01:25:44;;;;;;;17.30;8.80;;;;;;;12.28;54.69;99323.29;77926;1300;3054056;-64
2023/03/24 01:28:11;;;;;;;17.10;8.90;;;;;;;12.30;54.39;99321.20;79302;1297;3012943;-64
2023/03/24 01:30:40;;;;;;;20.50;9.00;;;;;;;12.32;54.38;99318.13;77970;1300;3026362;-63
2023/03/24 01:33:07;;;;;;;23.40;9.00;;;;;;;12.29;54.41;99322.23;79253;1298;3012764;-63
2023/03/24 01:35:35;;;;;;;20.20;8.50;;;;;;;12.24;54.84;99317.98;79196;1298;3011546;-66
2023/03/24 01:38:07;;;;;;;15.20;9.20;;;;;;;12.27;54.58;99319.35;77933;1300;3050778;-65
2023/03/24 01:40:35;;;;;;;16.70;8.50;;;;;;;12.22;54.68;99318.41;79112;1302;3013489;-65
2023/03/24 01:43:04;;;;;;;18.50;8.40;;;;;;;12.15;54.91;99317.19;78139;1300;3052996;-66
2023/03/24 01:45:52;;;;;;;19.70;9.50;;;;;;;12.11;55.18;99317.77;79355;1298;3012865;-65
2023/03/24 01:48:39;;;;;;;15.50;8.90;;;;;;;12.09;55.31;99317.05;77948;1300;3051756;-65
2023/03/24 01:51:25;;;;;;;14.40;8.80;;;;;;;12.06;55.32;99316.21;78108;1299;3057364;-67
2023/03/24 01:53:58;;;;;;;18.30;8.80;;;;;;;12.04;55.45;99317.58;78055;1303;3049872;-66
2023/03/24 01:56:26;;;;;;;16.90;8.60;;;;;;;12.03;55.31;99320.77;79238;1295;3011417;-66
2023/03/24 01:58:57;;;;;;;19.60;9.80;;;;;;;12.07;55.32;99322.10;77893;1302;3049421;-65
2023/03/24 02:01:40;;;;;;;24.70;8.70;;;;;;;11.98;55.63;99320.10;78093;1301;3055174;-65
2023/03/24 02:04:37;;;;;;;18.00;9.60;;;;;;;11.97;55.76;99319.80;77952;1301;3053648;-66
2023/03/24 02:07:15;;;;;;;18.40;9.30;;;;;;;11.93;55.91;99323.39;79469;1302;3013763;-65
2023/03/24 02:09:43;;;;;;;17.30;9.80;;;;;;;11.83;56.07;99325.45;78121;1298;3050937;-65
2023/03/24 02:12:10;;;;;;;22.00;10.20;;;;;;;11.78;56.37;99324.61;79300;1298;3013964;-65
2023/03/24 02:14:42;;;;;;;20.90;9.90;;;;;;;11.71;56.98;99327.67;77928;1297;3053487;-65
2023/03/24 02:17:38;;;;;;;22.00;9.30;;;;;;;11.67;57.08;99324.07;79270;1303;3013083;-65
2023/03/24 02:20:11;;;;;;;17.90;9.70;;;;;;;11.79;56.57;99326.09;78100;1300;3052128;-65
2023/03/24 02:23:17;;;;;;;16.20;8.90;;;;;;;11.80;56.70;99329.91;78058;1300;3069080;-65
2023/03/24 02:25:54;;;;;;;19.80;10.00;;;;;;;11.77;56.93;99327.13;77767;1298;3052690;-65
2023/03/24 02:28:28;;;;;;;20.00;9.80;;;;;;;11.75;56.59;99333.21;78076;1297;3057785;-64
2023/03/24 02:30:59;;;;;;;17.20;9.30;;;;;;;11.69;56.60;99338.85;79304;1297;3013280;-61
2023/03/24 02:34:10;;;;;;;20.70;10.50;;;;;;;11.67;56.57;99340.42;78037;1299;3053299;-65
2023/03/24 02:37:08;;;;;;;19.70;10.30;;;;;;;11.55;57.01;99344.67;77796;1302;3049380;-62
2023/03/24 02:40:10;;;;;;;27.10;10.80;;;;;;;11.52;57.00;99347.92;77899;1302;3052679;-64
2023/03/24 02:43:17;;;;;;;23.70;11.00;;;;;;;11.36;57.67;99352.27;77897;1304;3053615;-64
2023/03/24 02:46:07;;;;;;;20.80;11.20;;;;;;;11.28;57.62;99358.06;77946;1300;3069065;-64
2023/03/24 02:48:55;;;;;;;19.40;10.70;;;;;;;11.23;57.49;99360.10;78064;1300;3051870;-66
2023/03/24 02:51:25;;;;;;;24.00;12.50;;;;;;;11.17;57.73;99361.36;77951;1300;3058200;-65
2023/03/24 02:53:52;;;;;;;25.30;12.90;;;;;;;11.07;58.14;99359.74;79279;1300;3011812;-63
2023/03/24 02:56:38;;;;;;;29.80;14.50;;;;;;;11.02;58.17;99366.18;78076;1303;3054733;-63
2023/03/24 02:59:25;;;;;;;27.00;13.50;;;;;;;10.93;58.68;99365.95;77929;1300;3051752;-62
2023/03/24 03:01:57;;;;;;;25.80;12.80;;;;;;;10.82;58.92;99365.94;77907;1310;3053713;-63
2023/03/24 03:04:44;;;;;;;29.70;14.30;;;;;;;10.80;59.23;99363.55;77949;1300;3054083;-62
2023/03/24 03:07:15;;;;;;;29.70;13.70;;;;;;;10.75;59.58;99362.11;77994;1300;3070891;-63
2023/03/24 03:09:59;;;;;;;28.30;14.60;;;;;;;10.79;59.48;99357.33;79177;1302;3012799;-65
2023/03/24 03:12:30;;;;;;;31.30;14.30;;;;;;;10.73;59.93;99364.69;77952;1300;3058188;-63
2023/03/24 03:15:00;;;;;;;28.80;14.90;;;;;;;10.76;59.58;99367.69;79208;1296;3011691;-64
2023/03/24 03:17:31;;;;;;;29.10;15.20;;;;;;;10.69;59.73;99372.65;77895;1302;3054157;-61
2023/03/24 03:20:20;;;;;;;30.80;15.10;;;;;;;10.59;60.04;99371.00;79242;1298;3013392;-65
2023/03/24 03:23:10;;;;;;;29.20;13.10;;;;;;;10.52;60.55;99369.34;78029;1311;3053277;-61
2023/03/24 03:25:45;;;;;;;27.60;14.10;;;;;;;10.54;60.48;99365.70;77847;1300;3054213;-65
2023/03/24 03:28:16;;;;;;;25.40;13.60;;;;;;;10.55;60.75;99366.00;77833;1303;3069074;-64
2023/03/24 03:30:45;;;;;;;22.30;12.40;;;;;;;10.55;61.12;99365.14;79173;1300;3011660;-65
2023/03/24 03:33:25;;;;;;;24.20;11.70;;;;;;;10.64;60.67;99369.67;77947;1301;3057165;-63
2023/03/24 03:36:01;;;;;;;32.50;13.50;;;;;;;10.72;60.08;99372.32;77906;1302;3051578;-60
2023/03/24 03:38:45;;;;;;;27.60;12.40;;;;;;;10.72;60.20;99374.60;78010;1300;3053388;-62
2023/03/24 03:41:13;;;;;;;30.60;14.50;;;;;;;10.55;60.76;99379.14;77886;1301;3051978;-63
2023/03/24 03:43:40;;;;;;;30.60;15.10;;;;;;;10.35;61.42;99373.71;79315;1299;3013216;-63
2023/03/24 03:46:07;;;;;;;39.90;20.10;;;;;;;10.28;61.33;99368.70;79064;1313;3011749;-64
2023/03/24 03:48:37;;;;;;;39.00;20.00;;;;;;;10.00;62.57;99369.13;77956;1302;3051203;-65
2023/03/24 03:51:14;;;;;;;37.60;20.20;;;;;;;9.72;63.48;99370.40;77943;1311;3059687;-65
2023/03/24 03:53:55;;;;;;;50.20;22.10;;;;;;;9.54;64.29;99368.66;77978;1302;3050187;-63
2023/03/24 03:56:26;;;;;;;39.60;18.50;;;;;;;9.46;64.65;99367.88;79220;1301;3011544;-64
2023/03/24 03:59:28;;;;;;;36.40;19.20;;;;;;;9.33;65.38;99369.86;78110;1300;3051624;-63
2023/03/24 04:01:57;;;;;;;37.40;19.60;;;;;;;9.14;66.24;99370.75;77978;1302;3053708;-66
2023/03/24 04:05:15;;;;;;;38.30;20.30;;;;;;;9.01;66.76;99368.48;78890;1300;3011630;-66
2023/03/24 04:08:25;;;;;;;47.10;23.20;;;;;;;8.80;67.81;99370.68;77947;1308;3053049;-65
2023/03/24 04:11:05;;;;;;;42.50;20.80;;;;;;;8.70;68.22;99368.98;77911;1304;3069074;-65
2023/03/24 04:14:02;;;;;;;45.00;23.00;;;;;;;8.84;67.53;99369.25;77909;1306;3052713;-65
2023/03/24 04:17:05;;;;;;;39.00;21.30;;;;;;;8.81;67.78;99371.54;77906;1302;3056578;-65
2023/03/24 04:19:55;;;;;;;44.00;23.70;;;;;;;8.84;67.45;99367.52;77835;1302;3050665;-65
2023/03/24 04:22:59;;;;;;;40.70;19.60;;;;;;;8.82;67.72;99366.42;77922;1298;3053418;-65
2023/03/24 04:26:25;;;;;;;32.10;16.00;;;;;;;9.00;66.82;99366.48;78061;1311;3052106;-65
2023/03/24 04:29:12;;;;;;;31.50;16.40;;;;;;;9.14;66.63;99367.95;77684;1306;3053318;-64
2023/03/24 04:31:52;;;;;;;28.30;15.30;;;;;;;9.24;66.10;99368.45;77914;1302;3053835;-63
2023/03/24 04:34:24;;;;;;;35.90;15.20;;;;;;;9.40;65.42;99368.10;77780;1302;3068450;-66
2023/03/24 04:36:54;;;;;;;29.70;15.70;;;;;;;9.50;65.41;99371.54;79079;1302;3012083;-61
2023/03/24 04:39:37;;;;;;;32.60;15.40;;;;;;;9.63;64.86;99369.20;77905;1300;3057496;-65
2023/03/24 04:42:08;;;;;;;31.10;16.30;;;;;;;9.54;65.21;99370.59;79138;1304;3011647;-66
2023/03/24 04:44:37;;;;;;;27.40;14.50;;;;;;;9.55;65.33;99372.10;77847;1303;3054008;-66
2023/03/24 04:47:24;;;;;;;31.50;16.10;;;;;;;9.63;64.87;99373.89;77965;1300;3050168;-65
2023/03/24 04:50:10;;;;;;;37.40;17.40;;;;;;;9.65;64.85;99377.11;78021;1300;3052651;-64
2023/03/24 04:52:46;;;;;;;37.40;17.70;;;;;;;9.63;64.99;99374.77;77904;1302;3054238;-62
2023/03/24 04:55:49;;;;;;;32.90;17.70;;;;;;;9.57;65.10;99381.23;79151;1297;3013543;-64
2023/03/24 04:58:21;;;;;;;31.00;15.50;;;;;;;9.57;65.49;99383.02;77972;1301;3057257;-66
2023/03/24 05:00:48;;;;;;;31.50;16.30;;;;;;;9.66;65.06;99374.60;79437;1299;3013645;-65
2023/03/24 05:03:15;;;;;;;37.30;17.70;;;;;;;9.71;64.86;99365.77;79130;1302;3011824;-64
2023/03/24 05:05:44;;;;;;;31.10;15.90;;;;;;;9.67;65.16;99365.08;77939;1302;3052082;-62
2023/03/24 05:08:11;;;;;;;29.60;15.60;;;;;;;9.65;65.16;99367.30;79177;1301;3013797;-65
2023/03/24 05:10:38;;;;;;;36.20;16.80;;;;;;;9.75;64.64;99371.86;79167;1297;3011917;-65
2023/03/24 05:13:08;;;;;;;28.70;15.90;;;;;;;9.78;64.67;99372.85;77937;1302;3055036;-65
2023/03/24 05:15:52;;;;;;;34.10;15.40;;;;;;;9.90;64.21;99377.06;78097;1301;3051215;-64
2023/03/24 05:18:25;;;;;;;30.50;14.40;;;;;;;9.99;63.92;99371.81;77914;1302;3054439;-64
2023/03/24 05:20:53;;;;;;;27.70;13.80;;;;;;;10.07;63.61;99373.59;79263;1311;3013044;-66
2023/03/24 05:23:20;;;;;;;32.60;15.10;;;;;;;10.16;63.24;99377.09;79217;1300;3011708;-63
2023/03/24 05:25:55;;;;;;;33.80;15.00;;;;;;;10.22;63.18;99380.73;78129;1299;3068416;-64
2023/03/24 05:28:22;;;;;;;31.80;15.90;;;;;;;10.22;63.23;99383.52;79286;1303;3013023;-63
2023/03/24 05:30:49;;;;;;;32.50;14.00;;;;;;;10.24;63.17;99383.23;79150;1297;3011957;-62
2023/03/24 05:33:42;;;;;;;33.00;15.50;;;;;;;10.19;63.57;99379.02;77978;1300;3053104;-65
2023/03/24 05:36:11;;;;;;;43.50;18.30;;;;;;;10.17;63.69;99378.60;79300;1301;3011419;-63
2023/03/24 05:38:41;;;;;;;35.20;18.30;;;;;;;10.06;64.87;99373.48;77836;1302;3053558;-65
2023/03/24 05:41:08;;;;;;;38.80;18.60;;;;;;;10.02;64.58;99374.61;79206;1300;3013787;-64
2023/03/24 05:43:37;;;;;;;39.20;17.60;;;;;;;10.02;64.59;99376.49;79117;1297;3011780;-65
2023/03/24 05:46:09;;;;;;;39.30;17.80;;;;;;;9.99;64.98;99376.20;78051;1296;3056674;-64
2023/03/24 05:48:36;;;;;;;38.50;19.20;;;;;;;10.07;64.79;99379.94;79233;1300;3013140;-62
2023/03/24 05:51:17;;;;;;;38.80;18.10;;;;;;;10.10;64.74;99383.05;78049;1299;3051591;-63
2023/03/24 05:53:45;;;;;;;43.10;18.90;;;;;;;10.26;64.34;99391.21;79207;1300;3012899;-65
2023/03/24 05:56:19;;;;;;;35.70;18.00;;;;;;;10.34;64.00;99388.29;77939;1299;3068809;-64
2023/03/24 05:58:57;;;;;;;37.60;16.90;;;;;;;10.44;63.82;99390.64;78044;1300;3052394;-65
2023/03/24 06:01:29;;;;;;;41.40;21.70;;;;;;;10.55;63.64;99386.98;79208;1300;3013768;-63
2023/03/24 06:04:03;;;;;;;40.10;19.50;;;;;;;10.69;63.13;99387.88;77960;1301;3051620;-65
2023/03/24 06:06:32;;;;;;;47.70;18.60;;;;;;;10.79;62.78;99389.91;79091;1296;3011994;-64
2023/03/24 06:09:05;;;;;;;36.10;17.40;;;;;;;10.88;62.49;99390.38;77991;1300;3051012;-65
2023/03/24 06:11:32;;;;;;;50.80;19.90;;;;;;;10.90;62.47;99391.52;79177;1300;3013277;-63
2023/03/24 06:14:07;;;;;;;39.30;19.30;;;;;;;11.03;62.25;99393.50;77960;1300;3068317;-65
2023/03/24 06:16:43;;;;;;;54.00;23.90;;;;;;;11.07;62.44;99393.77;78469;1301;3052223;-58
2023/03/24 06:19:13;;;;;;;60.30;23.70;;;;;;;11.19;62.49;99392.82;79402;1295;3013040;-60
2023/03/24 06:21:54;;;;;;;47.90;25.00;;;;;;;11.30;62.15;99390.89;78010;1298;3050628;-56
2023/03/24 06:24:30;;;;;;;52.00;26.20;;;;;;;11.40;62.03;99388.31;77975;1300;3054687;-59
2023/03/24 06:27:02;;;;;;;49.50;23.90;;;;;;;11.61;61.37;99387.66;79156;1297;3011687;-57
2023/03/24 06:29:31;;;;;;;50.30;21.60;;;;;;;11.82;60.32;99391.69;77986;1301;3052611;-58
2023/03/24 06:31:58;;;;;;;61.00;29.80;;;;;;;12.01;59.39;99391.70;79185;1300;3013650;-59
2023/03/24 06:34:25;;;;;;;41.40;23.50;;;;;;;12.22;58.28;99392.91;79228;1299;3011832;-58
2023/03/24 06:37:11;;;;;;;;;;;;;;;12.36;56.99;99390.35;77941;1302;3057146;-57
2023/03/24 06:39:39;;;;;;;37.70;18.90;;;;;;;12.48;56.87;99391.83;79191;1300;3015040;-58
2023/03/24 06:42:06;;;;;;;68.00;28.40;;;;;;;12.62;56.14;99391.72;79222;1297;3011482;-58
2023/03/24 06:44:35;;;;;;;61.50;24.80;;;;;;;12.66;56.31;99390.20;78206;1301;3053342;-57
2023/03/24 06:47:03;;;;;;;37.30;17.10;;;;;;;12.87;56.08;99386.77;79291;1299;3013128;-61
2023/03/24 06:49:29;;;;;;;42.30;14.60;;;;;;;13.09;54.75;99389.42;79266;1296;3012164;-61
2023/03/24 06:51:57;;;;;;;27.20;14.50;;;;;;;13.19;53.40;99392.44;77957;1296;3056535;-61
2023/03/24 06:54:28;;;;;;;35.80;13.80;;;;;;;13.29;53.35;99387.78;79226;1300;3011669;-60
2023/03/24 06:56:56;;;;;;;27.10;12.60;;;;;;;13.36;52.84;99382.73;77977;1297;3028227;-59
2023/03/24 06:59:24;;;;;;;27.60;14.00;;;;;;;13.41;52.61;99381.31;79354;1316;3013638;-60
2023/03/24 07:01:51;;;;;;;29.00;13.00;;;;;;;13.50;52.56;99376.25;79146;1300;3011505;-59
2023/03/24 07:04:24;;;;;;;34.00;12.90;;;;;;;13.67;52.15;99376.63;77964;1300;3068396;-61
2023/03/24 07:07:05;;;;;;;;;;;;;;;13.75;51.64;99376.31;77989;1297;3052073;-63
2023/03/24 07:09:32;;;;;;;24.70;10.80;;;;;;;13.89;51.92;99380.08;79227;1300;3015657;-58
2023/03/24 07:12:01;;;;;;;24.50;11.10;;;;;;;14.11;50.88;99385.24;79119;1296;3011646;-60
2023/03/24 07:14:29;;;;;;;23.10;9.80;;;;;;;14.30;50.97;99386.45;77964;1300;3049723;-62
2023/03/24 07:17:01;;;;;;;25.20;10.30;;;;;;;14.46;50.10;99390.55;79505;1298;3013578;-62
2023/03/24 07:19:41;;;;;;;24.80;9.10;;;;;;;14.51;49.41;99385.52;77988;1301;3054084;-60
2023/03/24 07:22:35;;;;;;;23.20;9.00;;;;;;;14.54;48.63;99386.86;77905;1303;3070464;-62
2023/03/24 07:25:23;;;;;;;19.30;9.20;;;;;;;14.63;48.78;99382.14;78026;1294;3053487;-62
2023/03/24 07:28:17;;;;;;;26.60;10.30;;;;;;;14.74;48.38;99378.31;78025;1298;3056984;-62
2023/03/24 07:30:45;;;;;;;23.60;10.20;;;;;;;14.72;48.33;99373.84;79337;1295;3014327;-59
2023/03/24 07:33:13;;;;;;;26.00;10.00;;;;;;;14.71;48.42;99373.04;79252;1294;3013209;-59
2023/03/24 07:35:42;;;;;;;26.80;11.70;;;;;;;14.75;48.77;99373.98;78030;1300;3052288;-62
2023/03/24 07:38:15;;;;;;;18.90;8.70;;;;;;;14.72;48.66;99374.77;79193;1300;3011616;-61
2023/03/24 07:40:43;;;;;;;19.30;9.40;;;;;;;14.86;48.83;99378.38;77992;1297;3069794;-61
2023/03/24 07:43:13;;;;;;;21.00;10.00;;;;;;;14.87;48.90;99377.80;79236;1300;3011908;-62
2023/03/24 07:45:45;;;;;;;23.70;10.30;;;;;;;14.94;48.92;99381.66;78018;1297;3056549;-62
2023/03/24 07:48:13;;;;;;;16.70;10.30;;;;;;;14.89;49.38;99378.33;79557;1296;3015796;-64
2023/03/24 07:50:40;;;;;;;25.20;11.90;;;;;;;14.89;49.49;99377.29;79229;1296;3011591;-60
2023/03/24 07:53:21;;;;;;;25.70;11.30;;;;;;;14.81;49.95;99375.63;78006;1300;3053969;-60
2023/03/24 07:55:49;;;;;;;21.50;10.10;;;;;;;14.90;50.07;99368.05;79266;1300;3013220;-59
2023/03/24 07:58:22;;;;;;;28.20;11.00;;;;;;;14.96;49.76;99366.33;77968;1300;3051649;-59
2023/03/24 08:01:10;;;;;;;19.30;9.10;;;;;;;15.02;49.01;99368.19;77926;1297;3057128;-60
2023/03/24 08:03:43;;;;;;;27.20;14.30;;;;;;;15.18;49.40;99364.19;77338;1297;3012952;-59
2023/03/24 08:06:23;;;;;;;24.80;10.50;;;;;;;15.32;49.07;99363.45;77999;1298;3049136;-62
2023/03/24 08:08:52;;;;;;;25.00;9.70;;;;;;;15.47;48.40;99360.27;79286;1296;3013293;-61
2023/03/24 08:11:18;;;;;;;22.00;8.40;;;;;;;15.54;48.07;99362.15;79193;1297;3011891;-60
2023/03/24 08:13:46;;;;;;;20.40;8.80;;;;;;;15.55;47.57;99364.37;77984;1300;3053437;-65
2023/03/24 08:16:13;;;;;;;17.10;9.30;;;;;;;15.41;47.65;99361.44;79434;1297;3012802;-68
2023/03/24 08:18:41;;;;;;;21.00;8.00;;;;;;;15.41;47.11;99358.45;79340;1296;3011869;-66
2023/03/24 08:21:16;;;;;;;15.60;7.50;;;;;;;15.35;47.25;99357.01;78265;1297;3050703;-66
2023/03/24 08:23:43;;;;;;;16.10;6.70;;;;;;;15.50;46.95;99353.09;79373;1296;3013076;-67
2023/03/24 08:26:10;;;;;;;30.20;11.90;;;;;;;15.64;47.11;99351.96;79351;1300;3011964;-66
2023/03/24 08:28:38;;;;;;;18.90;7.40;;;;;;;15.58;46.57;99347.72;78382;1299;3053282;-65
2023/03/24 08:31:05;;;;;;;18.80;7.10;;;;;;;15.60;47.12;99348.04;79486;1299;3013955;-68
2023/03/24 08:33:34;;;;;;;13.50;6.50;;;;;;;15.53;47.21;99348.67;79337;1296;3011510;-68
2023/03/24 08:36:03;;;;;;;12.20;6.60;;;;;;;15.52;46.87;99351.04;78183;1297;3049845;-66
2023/03/24 08:38:29;;;;;;;14.90;6.40;;;;;;;15.63;47.25;99348.50;79448;1297;3013114;-66
2023/03/24 08:41:05;;;;;;;39.70;14.70;;;;;;;15.74;46.66;99349.59;79322;1297;3013268;-65
2023/03/24 08:43:34;;;;;;;52.60;17.80;;;;;;;15.76;46.32;99349.91;78258;1298;3052105;-65
2023/03/24 08:46:06;;;;;;;19.60;8.10;;;;;;;15.78;46.11;99347.30;79331;1297;3011764;-65
2023/03/24 08:48:36;;;;;;;19.50;7.20;;;;;;;15.88;46.01;99348.61;78149;1300;3052160;-66
2023/03/24 08:51:12;;;;;;;16.70;6.90;;;;;;;15.95;45.78;99353.81;79497;1295;3013175;-67
2023/03/24 08:53:40;;;;;;;15.20;5.90;;;;;;;15.94;45.41;99351.27;78417;1298;3049332;-66
2023/03/24 08:56:07;;;;;;;16.00;7.00;;;;;;;15.96;45.39;99356.56;79623;1295;3019042;-65
2023/03/24 08:58:34;;;;;;;16.20;7.70;;;;;;;16.13;45.12;99354.08;79590;1295;3011975;-66
2023/03/24 09:01:02;;;;;;;17.60;6.60;;;;;;;16.22;44.74;99351.89;78371;1298;3054293;-68
2023/03/24 09:03:30;;;;;;;9.50;5.70;;;;;;;16.23;44.52;99348.44;79564;1295;3012968;-66
2023/03/24 09:06:00;;;;;;;13.80;6.20;;;;;;;16.31;44.60;99348.81;78989;1296;3011668;-66
2023/03/24 09:08:27;;;;;;;10.60;6.10;;;;;;;16.44;44.31;99349.05;79524;1299;3012994;-66
2023/03/24 09:10:53;;;;;;;15.20;7.30;;;;;;;16.57;43.57;99349.72;79455;1295;3011521;-65
2023/03/24 09:13:22;;;;;;;11.80;6.20;;;;;;;16.69;43.82;99349.56;77980;1299;3049952;-62
2023/03/24 09:15:52;;;;;;;14.30;5.40;;;;;;;16.90;43.23;99356.45;79420;1300;3013575;-65
2023/03/24 09:18:22;;;;;;;9.80;5.20;;;;;;;16.87;42.87;99367.64;78993;1299;3011835;-65
2023/03/24 09:20:49;;;;;;;12.50;4.80;;;;;;;16.91;43.30;99362.71;79591;1294;3011624;-65
2023/03/24 09:23:20;;;;;;;10.30;5.00;;;;;;;16.96;43.15;99359.77;79138;1297;3012788;-67
2023/03/24 09:25:51;;;;;;;10.80;5.70;;;;;;;16.89;43.26;99345.31;79633;1296;3011538;-64
2023/03/24 09:28:20;;;;;;;10.00;5.10;;;;;;;16.99;43.10;99326.98;78290;1299;3051251;-65
2023/03/24 09:30:46;;;;;;;16.10;5.60;;;;;;;17.12;42.94;99327.05;79444;1299;3013671;-65
2023/03/24 09:33:14;;;;;;;12.40;5.50;;;;;;;17.30;42.79;99335.34;79363;1298;3012258;-67
2023/03/24 09:35:44;;;;;;;20.70;6.30;;;;;;;17.42;42.59;99344.70;78160;1299;3052713;-65
2023/03/24 09:38:17;;;;;;;14.40;6.20;;;;;;;17.39;42.53;99337.20;79008;1297;3011335;-66
2023/03/24 09:40:54;;;;;;;14.00;6.50;;;;;;;17.42;41.95;99328.79;79428;1295;3012983;-66
2023/03/24 09:43:49;;;;;;;16.40;8.40;;;;;;;17.43;42.17;99324.63;78061;1297;3058155;-67
2023/03/24 09:46:25;;;;;;;22.80;9.70;;;;;;;17.32;43.34;99327.75;78172;1297;3049464;-66
2023/03/24 09:48:56;;;;;;;16.90;7.00;;;;;;;17.45;42.62;99326.55;77930;1297;3052712;-67
2023/03/24 09:51:24;;;;;;;17.80;7.50;;;;;;;17.46;41.93;99324.70;79555;1299;3011457;-66
2023/03/24 09:54:15;;;;;;;16.00;7.60;;;;;;;17.67;42.10;99318.16;78227;1300;3027628;-67
2023/03/24 09:56:45;;;;;;;22.00;9.90;;;;;;;17.76;42.40;99317.13;78126;1297;3053468;-68
2023/03/24 09:59:19;;;;;;;20.90;10.20;;;;;;;17.76;42.59;99309.52;79402;1297;3013377;-66
2023/03/24 10:01:47;;;;;;;20.90;9.40;;;;;;;18.02;42.67;99301.85;78247;1298;3053279;-66
2023/03/24 10:04:16;;;;;;;20.00;8.50;;;;;;;18.07;42.38;99305.29;79351;1297;3013165;-66
2023/03/24 10:06:47;;;;;;;18.70;8.10;;;;;;;17.36;43.18;99308.41;78060;1297;3054435;-66
2023/03/24 10:09:33;;;;;;;16.00;7.70;;;;;;;17.20;43.69;99314.14;79550;1296;3011442;-65
2023/03/24 10:12:20;;;;;;;20.10;6.40;;;;;;;17.42;43.56;99307.57;78059;1303;3054541;-66
2023/03/24 10:15:11;;;;;;;13.70;6.90;;;;;;;17.30;43.52;99310.42;77915;1297;3053611;-65
2023/03/24 10:18:16;;;;;;;12.20;6.30;;;;;;;17.30;43.88;99311.07;77945;1297;3067947;-66
2023/03/24 10:20:53;;;;;;;13.90;5.50;;;;;;;17.59;43.38;99306.85;78126;1302;3053161;-66
2023/03/24 10:23:45;;;;;;;10.10;5.80;;;;;;;17.63;42.20;99304.08;77985;1297;3058629;-66
2023/03/24 10:26:20;;;;;;;20.90;5.80;;;;;;;17.29;41.06;99311.34;78127;1297;3049288;-67
2023/03/24 10:28:51;;;;;;;14.50;4.90;;;;;;;17.51;40.97;99307.80;79441;1297;3011598;-66
2023/03/24 10:31:25;;;;;;;15.20;5.80;;;;;;;17.52;40.90;99303.28;78112;1298;3048243;-66
2023/03/24 10:33:51;;;;;;;13.30;5.50;;;;;;;17.37;40.35;99301.48;79322;1301;3011699;-66
2023/03/24 10:36:20;;;;;;;15.50;6.10;;;;;;;17.31;40.71;99293.14;78112;1302;3053379;-64
2023/03/24 10:38:50;;;;;;;11.60;5.60;;;;;;;17.37;40.67;99293.65;79259;1302;3011499;-66
2023/03/24 10:41:20;;;;;;;21.30;6.70;;;;;;;17.44;40.42;99285.04;78114;1302;3028175;-67
2023/03/24 10:43:47;;;;;;;16.60;6.00;;;;;;;17.55;40.57;99281.15;79515;1302;3013494;-68
2023/03/24 10:46:14;;;;;;;13.10;4.90;;;;;;;17.66;40.47;99286.04;79361;1301;3011352;-70
2023/03/24 10:48:50;;;;;;;14.80;5.40;;;;;;;17.87;39.64;99271.14;78290;1302;3052427;-70
2023/03/24 10:51:25;;;;;;;14.60;5.80;;;;;;;17.88;39.69;99274.96;78216;1301;3053803;-69
2023/03/24 10:54:14;;;;;;;21.60;6.10;;;;;;;18.13;39.42;99278.98;79440;1302;3011493;-71
2023/03/24 10:56:49;;;;;;;12.80;5.50;;;;;;;18.10;39.40;99275.73;78129;1297;3069941;-74
2023/03/24 10:59:19;;;;;;;13.70;5.90;;;;;;;17.83;39.28;99268.17;79424;1298;3012104;-69
2023/03/24 11:01:47;;;;;;;12.90;4.70;;;;;;;17.84;39.57;99268.60;78183;1301;3055931;-68
2023/03/24 11:04:15;;;;;;;14.10;5.40;;;;;;;17.95;39.09;99268.27;79308;1297;3011599;-67
2023/03/24 11:07:16;;;;;;;12.50;5.40;;;;;;;18.08;39.25;99261.09;79437;1301;3013062;-67
2023/03/24 11:09:45;;;;;;;9.10;4.90;;;;;;;18.10;38.81;99273.10;78153;1302;3052834;-67
2023/03/24 11:12:27;;;;;;;12.00;6.00;;;;;;;18.22;38.77;99254.96;79480;1302;3011653;-67
2023/03/24 11:15:17;;;;;;;22.20;9.30;;;;;;;18.20;38.97;99260.66;78149;1302;3068725;-67
2023/03/24 11:17:57;;;;;;;12.00;5.50;;;;;;;18.36;38.92;99270.42;78237;1298;3051204;-67
2023/03/24 11:20:28;;;;;;;8.00;4.80;;;;;;;18.29;38.43;99262.23;78202;1297;3057826;-68
2023/03/24 11:23:28;;;;;;;11.30;4.40;;;;;;;17.89;38.89;99266.01;79416;1301;3011629;-67
2023/03/24 11:26:03;;;;;;;14.20;4.90;;;;;;;17.68;38.81;99260.50;78100;1297;3054649;-64
2023/03/24 11:28:34;;;;;;;11.30;4.10;;;;;;;17.57;39.15;99259.21;79597;1302;3011652;-66
2023/03/24 11:31:05;;;;;;;16.00;5.70;;;;;;;17.91;39.01;99251.31;78110;1302;3052807;-60
2023/03/24 11:33:33;;;;;;;10.40;5.40;;;;;;;18.01;38.24;99254.83;79128;1301;3011608;-61
2023/03/24 11:36:27;;;;;;;12.60;5.20;;;;;;;18.23;38.52;99248.13;77868;1301;3068979;-62
2023/03/24 11:39:00;;;;;;;13.60;4.90;;;;;;;18.61;37.51;99251.73;78023;1298;3051104;-61
2023/03/24 11:41:28;;;;;;;21.90;5.80;;;;;;;18.58;37.74;99250.41;79203;1297;3011951;-61